Historyczne dane pomiarowe

Dodano dane terminowe – wersja testowa.

Dane z okresu 1951-2019

Wersja bazy: 1.34 [2019-03-16, lista zmian], aktualizacja planowana na 2019-04-15

Dane meteo z obszaru Polski uzyskane na podstawie danych udostępnionych przez Instytut Meteorologii i Gospodarki Wodnej – Państwowy Instytut Badawczy.

 

Wybierz Datę:    

       

TemperaturaWilgotnośćWiatrCiśnienieOpadyŚniegCzas trwania zjawisk
 Stacja t tx tn tng RH VA  wxwx mslp ppp RRR   cm mm wxwxwxwxwxwxwx
1968-08-13 13.5 19.5 11.0- 77.0- 2.0 3.7---- 0.0------------
1968-08-14 15.9 22.1 6.7- 78.8- 5.7 2.7---- 0.0------------
1968-08-15 14.3 20.1 12.0- 85.0- 6.7 3.7---- 2.1------------
1968-08-16 13.1 18.4 9.1- 74.0- 2.3 4.7---- 1.2------------
1968-08-17 17.6 22.7 11.0- 78.0- 2.3 4.3---- 1.2------------
1968-08-18 15.0 19.3 13.5- 92.5- 7.3 2.7---- 8.4------------
1968-08-19 13.3 16.1 11.7- 90.0- 8.0 2.3---- 6.0------------
1968-08-20 12.0 13.2 10.5- 93.0- 7.7 3.3---- 2.7------------
1968-08-21 11.5 17.7 9.0- 89.3- 3.7 2.7---- 0.0------------
1968-08-22 14.3 20.9 4.1- 74.8- 0.0 1.7---- 0.0------------
1968-08-23 20.1 27.1 13.9- 79.8- 0.0 2.7---- 0.0------------
1968-08-24 18.9 23.7 14.0- 77.8- 5.7 3.0---- 0.4------------
1968-08-25 17.5 22.5 13.2- 91.8- 5.0 2.3---- 2.2------------
1968-08-26 17.5 24.5 12.5- 88.8- 4.3 1.0---- 0.0------------
1968-08-27 18.7 26.1 12.7- 88.0- 1.0 1.3---- 0.0------------
1968-08-28 19.9 27.9 13.1- 80.5- 0.7 2.0---- 0.1------------
1968-08-29 20.0 27.6 13.5- 73.0- 3.0 3.3---- 0.0------------
1968-08-30 20.2 26.7 16.5- 78.8- 2.0 4.0---- 0.0------------
1968-08-31 21.0 28.7 13.9- 74.5- 0.3 3.3---- 0.0------------
1968-09-01 19.0 26.7 13.5- 76.5- 0.7 3.0---- 0.0------------
1968-09-02 17.7 26.6 11.5- 78.5- 1.3 1.0---- 0.0------------
1968-09-03 18.4 25.5 10.0- 85.5- 3.0 1.0---- 0.0------------
1968-09-04 19.3 27.8 15.1- 63.8- 4.7 4.0---- 0.0------------
1968-09-05 19.2 28.5 12.9- 65.3- 2.7 6.0---- 0.0------------
1968-09-06 17.6 26.3 12.1- 70.0- 0.0 3.3---- 0.0------------
1968-09-07 16.2 26.7 8.9- 80.0- 3.3 1.7---- 2.4------------
1968-09-08 17.0 25.3 9.8- 77.5- 0.3 2.7---- 0.0------------
1968-09-09 12.8 19.8 8.5- 73.5- 0.0 3.7---- 0.0------------
1968-09-10 8.6 17.1 3.6- 78.0- 0.0 2.3---- 0.0------------
1968-09-11 7.8 17.9 -0.4- 79.0- 0.0 1.0---- 0.0------------
278.4 ms

 

Źródłem pochodzenia danych jest Instytut Meteorologii i Gospodarki Wodnej – Państwowy Instytut Badawczy. Dane Instytutu Meteorologii i Gospodarki Wodnej – Państwowego Instytutu Badawczego zostały przetworzone.

Dane źródłowe można odnaleźć na stronie https://dane.imgw.pl